CMB856 Details

Departure: Daniel K Inouye International Airport (PHNL)
Arrival: Guam International Airport (PGUM) at N/A
Route: KEOLA2 KATHS HOOPA A450 DEWSS A450 UNZ
Notes: USTRANSCOM CONTRACT FLIGHT | PAYLOAD RESTRICTED | ETOPS


Current Weather Information
PHNL 251053Z 08009KT 10SM CLR 28/21 A3000 RMK AO2 SLP157 T02780206
PGUM 251134Z 13005KT 10SM FEW016 SCT027 SCT037 28/25 A2985 RMK AO2 RAB17E26 P0000 T02780250